Decoded Metar for KRBD (DALLAS/REDBIRD in TX, USA) (IATA:RBD) | Meteo·Mobile Aviation Weather
aviador You're here:

KRBD Decoded Metar

DALLAS/REDBIRD in TX, USA
Report Time2019-05-19 17:53:00
UTC Time2019-05-19 18:20:20
Flight Rules vfr VFR
Wind010° at 08 kt
W.Decomp.*RWY 35: 7.8 kt HW 1.9 kt RCW
RWY 31: 4.7 kt HW 6.5 kt RCW
Visibility9999 m
Phenomena:N/A
Clouds:N/A
Expected CloudBase > 6,400 ft AGL from Temp-Dew spread
CeilingNone
Temp28°C (ISA +14)
Dew Point12°C (37% RH)
Heat Index27.5°C
AAT25.7°C
QNH1013 hPa
Density Alt2,503 ft
Elevation666 ft
Report Wrong Elevation
Raw Report
KRBD 191753Z 01008KT 10SM CLR 28/12 A2991 RMK AO2 SLP119 T02780117
10278 20206 51008=

Extra information for KRBD:More info

Metar Taf Metar & Taf Last 4 Metars F.Rules Stats Wind Profile Meteogram Temp Stats Airport Information Weather charts Add Link Nearby VenuesMetar ALERT Operation Metar Decoded Social comments

AIRNAV info for KRBD